Time;durP1;ratioP1;P1;durP2;ratioP2;P2;SDS_P1;SDS_P2;PMS_P1;PMS_P2;Temp;Humidity;BMP_temperature;BMP_pressure;BME280_temperature;BME280_humidity;BME280_pressure;Samples;Min_cycle;Max_cycle;Signal;HPM_P1;HPM_P2
2022/07/10 00:02:07;;;;;;;2.40;2.20;;;;;;;;;;5032156;28;20231;-40
2022/07/10 00:04:34;;;;;;;3.57;2.07;;;;;;;;;;5031204;28;20235;-37
2022/07/10 00:07:02;;;;;;;2.30;2.10;;;;;;;;;;5034774;28;20319;-35
2022/07/10 00:09:30;;;;;;;1.93;1.83;;;;;;;;;;5018002;28;20216;-36
2022/07/10 00:11:57;;;;;;;2.37;2.17;;;;;;;;;;5025103;28;20202;-33
2022/07/10 00:14:24;;;;;;;2.27;2.17;;;;;;;;;;5026369;28;20200;-38
2022/07/10 00:16:51;;;;;;;3.13;2.50;;;;;;;;;;5042492;28;20241;-36
2022/07/10 00:19:20;;;;;;;2.23;2.03;;;;;;;;;;5015712;28;20206;-36
2022/07/10 00:21:47;;;;;;;2.30;1.93;;;;;;;;;;5039510;28;20219;-35
2022/07/10 00:24:14;;;;;;;2.33;2.20;;;;;;;;;;5047735;28;20209;-37
2022/07/10 00:26:41;;;;;;;1.80;1.70;;;;;;;;;;5032312;28;20225;-32
2022/07/10 00:29:08;;;;;;;2.00;1.90;;;;;;;;;;5027544;28;20565;-34
2022/07/10 00:31:35;;;;;;;2.10;1.97;;;;;;;;;;5021204;28;20209;-37
2022/07/10 00:34:03;;;;;;;2.37;2.17;;;;;;;;;;5024625;28;20277;-36
2022/07/10 00:36:31;;;;;;;2.47;2.27;;;;;;;;;;5025607;28;20229;-36
2022/07/10 00:38:58;;;;;;;2.13;2.03;;;;;;;;;;5027420;28;20205;-35
2022/07/10 00:41:25;;;;;;;2.30;2.10;;;;;;;;;;5029496;28;20278;-37
2022/07/10 00:43:53;;;;;;;2.70;2.50;;;;;;;;;;5020243;28;20232;-37
2022/07/10 00:46:21;;;;;;;3.23;2.13;;;;;;;;;;5031840;28;20243;-37
2022/07/10 00:48:48;;;;;;;2.20;1.97;;;;;;;;;;5027426;28;20587;-35
2022/07/10 00:51:15;;;;;;;2.50;1.97;;;;;;;;;;5022297;28;20201;-37
2022/07/10 00:53:44;;;;;;;2.60;2.40;;;;;;;;;;5046936;28;20207;-38
2022/07/10 00:56:12;;;;;;;2.90;1.90;;;;;;;;;;5046346;28;20702;-35
2022/07/10 00:58:41;;;;;;;4.10;2.40;;;;;;;;;;5022622;28;20311;-38
2022/07/10 01:01:08;;;;;;;2.13;2.03;;;;;;;;;;5029674;28;20205;-34
2022/07/10 01:03:35;;;;;;;2.40;2.20;;;;;;;;;;5021620;28;20238;-39
2022/07/10 01:06:03;;;;;;;2.33;2.13;;;;;;;;;;5037851;28;20225;-36
2022/07/10 01:08:30;;;;;;;2.50;2.30;;;;;;;;;;5046675;28;20235;-34
2022/07/10 01:10:59;;;;;;;3.53;1.73;;;;;;;;;;5028957;28;20210;-37
2022/07/10 01:13:26;;;;;;;1.90;1.80;;;;;;;;;;5028111;28;20208;-39
2022/07/10 01:15:53;;;;;;;2.30;2.20;;;;;;;;;;5043695;28;20217;-34
2022/07/10 01:18:20;;;;;;;2.07;1.97;;;;;;;;;;5037714;28;20515;-37
2022/07/10 01:20:47;;;;;;;2.40;2.20;;;;;;;;;;5021413;28;20217;-39
2022/07/10 01:23:16;;;;;;;4.60;2.40;;;;;;;;;;5038884;28;20221;-39
2022/07/10 01:25:43;;;;;;;2.67;2.20;;;;;;;;;;5032040;28;20204;-38
2022/07/10 01:28:10;;;;;;;2.87;2.23;;;;;;;;;;5023817;28;20244;-37
2022/07/10 01:30:38;;;;;;;2.60;2.40;;;;;;;;;;5036079;28;20239;-38
2022/07/10 01:33:05;;;;;;;2.47;2.30;;;;;;;;;;5031544;28;20209;-39
2022/07/10 01:35:32;;;;;;;2.17;2.00;;;;;;;;;;5023512;28;20216;-38
2022/07/10 01:37:59;;;;;;;2.60;2.30;;;;;;;;;;5048318;28;20247;-37
2022/07/10 01:40:28;;;;;;;2.40;2.30;;;;;;;;;;5037858;28;20269;-36
2022/07/10 01:42:55;;;;;;;2.30;2.10;;;;;;;;;;5026910;28;20221;-35
2022/07/10 01:45:22;;;;;;;1.97;1.87;;;;;;;;;;5025915;28;20205;-37
2022/07/10 01:47:49;;;;;;;2.43;2.27;;;;;;;;;;5031309;28;20236;-38
2022/07/10 01:50:17;;;;;;;2.57;2.37;;;;;;;;;;5025648;28;20201;-37
2022/07/10 01:52:44;;;;;;;2.10;2.00;;;;;;;;;;5031883;28;20202;-39
2022/07/10 01:55:11;;;;;;;4.50;2.37;;;;;;;;;;5032973;28;20216;-37
2022/07/10 01:57:39;;;;;;;2.97;2.50;;;;;;;;;;5019061;28;20590;-36
2022/07/10 02:00:07;;;;;;;3.57;2.20;;;;;;;;;;5023536;28;20212;-38
2022/07/10 02:02:35;;;;;;;3.50;1.93;;;;;;;;;;5034915;28;20724;-37
2022/07/10 02:05:01;;;;;;;2.53;2.43;;;;;;;;;;5024446;28;20205;-37
2022/07/10 02:07:28;;;;;;;2.30;2.20;;;;;;;;;;5019769;28;20240;-37
2022/07/10 02:09:55;;;;;;;2.03;1.93;;;;;;;;;;5047548;28;20204;-36
2022/07/10 02:12:22;;;;;;;2.33;2.23;;;;;;;;;;5029095;28;20223;-33
2022/07/10 02:14:51;;;;;;;2.40;2.30;;;;;;;;;;5024147;28;20209;-37
2022/07/10 02:17:18;;;;;;;2.63;2.43;;;;;;;;;;5035369;28;20220;-35
2022/07/10 02:19:45;;;;;;;2.50;2.30;;;;;;;;;;5025510;28;20213;-41
2022/07/10 02:22:12;;;;;;;2.50;2.17;;;;;;;;;;5031604;28;20207;-33
2022/07/10 02:24:39;;;;;;;2.30;2.20;;;;;;;;;;5034946;28;20231;-37
2022/07/10 02:27:06;;;;;;;2.70;2.50;;;;;;;;;;5029672;28;20231;-35
2022/07/10 02:29:33;;;;;;;2.70;2.50;;;;;;;;;;5021965;28;20203;-36
2022/07/10 02:32:03;;;;;;;9.43;2.80;;;;;;;;;;5026840;28;20677;-39
2022/07/10 02:34:30;;;;;;;3.97;2.37;;;;;;;;;;5021516;28;20254;-40
2022/07/10 02:36:57;;;;;;;2.40;2.20;;;;;;;;;;5014516;28;20309;-39
2022/07/10 02:39:24;;;;;;;2.00;1.90;;;;;;;;;;5037828;28;20573;-38
2022/07/10 02:41:51;;;;;;;2.37;2.20;;;;;;;;;;5028827;28;20219;-38
2022/07/10 02:44:18;;;;;;;2.43;2.27;;;;;;;;;;5013195;28;20235;-38
2022/07/10 02:46:45;;;;;;;3.00;2.30;;;;;;;;;;5032963;28;20237;-36
2022/07/10 02:49:14;;;;;;;2.87;2.63;;;;;;;;;;5030476;28;20209;-36
2022/07/10 02:51:41;;;;;;;3.20;2.30;;;;;;;;;;5023384;28;20205;-39
2022/07/10 02:54:08;;;;;;;2.87;2.43;;;;;;;;;;5045433;28;20200;-36
2022/07/10 02:56:36;;;;;;;2.67;2.47;;;;;;;;;;5028845;28;20224;-34
2022/07/10 02:59:04;;;;;;;2.70;2.50;;;;;;;;;;5022330;28;20212;-34
2022/07/10 03:01:31;;;;;;;2.73;2.40;;;;;;;;;;5031334;28;20234;-33
2022/07/10 03:03:58;;;;;;;3.03;2.53;;;;;;;;;;5026813;28;20228;-36
2022/07/10 03:06:28;;;;;;;2.90;2.70;;;;;;;;;;5029942;28;20259;-40
2022/07/10 03:08:55;;;;;;;2.17;2.07;;;;;;;;;;5045381;28;20205;-37
2022/07/10 03:11:23;;;;;;;3.20;2.47;;;;;;;;;;5027576;28;20205;-39
2022/07/10 03:13:50;;;;;;;2.93;2.53;;;;;;;;;;5023348;28;20256;-34
2022/07/10 03:16:17;;;;;;;4.43;2.70;;;;;;;;;;5025565;28;20234;-39
2022/07/10 03:18:45;;;;;;;2.93;2.63;;;;;;;;;;5030995;28;20200;-36
2022/07/10 03:21:12;;;;;;;5.47;3.00;;;;;;;;;;5016709;28;20262;-36
2022/07/10 03:23:40;;;;;;;3.60;2.50;;;;;;;;;;5036885;28;20220;-40
2022/07/10 03:26:08;;;;;;;3.20;2.90;;;;;;;;;;5029660;28;20218;-35
2022/07/10 03:28:35;;;;;;;3.43;3.03;;;;;;;;;;5020426;28;20217;-37
2022/07/10 03:31:03;;;;;;;2.90;2.60;;;;;;;;;;5040668;28;20209;-33
2022/07/10 03:33:30;;;;;;;3.00;2.80;;;;;;;;;;5033298;28;20231;-37
2022/07/10 03:35:57;;;;;;;2.97;2.67;;;;;;;;;;5038703;28;20209;-39
2022/07/10 03:38:24;;;;;;;3.60;2.60;;;;;;;;;;5049086;28;20211;-36
2022/07/10 03:40:52;;;;;;;3.60;3.20;;;;;;;;;;5032909;28;20212;-37
2022/07/10 03:43:20;;;;;;;4.43;3.00;;;;;;;;;;5027491;28;20322;-36
2022/07/10 03:48:15;;;;;;;4.10;3.07;;;;;;;;;;5029665;28;20234;-32
2022/07/10 03:50:42;;;;;;;4.40;2.70;;;;;;;;;;5019025;28;20200;-31
2022/07/10 03:53:09;;;;;;;2.93;2.73;;;;;;;;;;5030698;28;20211;-28
2022/07/10 03:55:36;;;;;;;4.60;3.33;;;;;;;;;;5019086;28;20208;-31
2022/07/10 03:58:04;;;;;;;4.17;2.90;;;;;;;;;;5017526;28;20239;-33
2022/07/10 04:00:32;;;;;;;4.70;2.93;;;;;;;;;;5025597;28;20215;-33
2022/07/10 04:03:00;;;;;;;3.70;3.10;;;;;;;;;;5013524;28;20209;-31
2022/07/10 04:05:27;;;;;;;6.23;2.93;;;;;;;;;;5015676;28;20230;-31
2022/07/10 04:07:56;;;;;;;5.37;3.00;;;;;;;;;;5015424;28;20235;-29
2022/07/10 04:10:24;;;;;;;4.57;2.97;;;;;;;;;;5013379;28;20300;-31
2022/07/10 04:12:51;;;;;;;3.10;2.80;;;;;;;;;;5017494;28;20217;-31
2022/07/10 04:15:20;;;;;;;5.63;3.20;;;;;;;;;;5029026;28;20214;-33
2022/07/10 04:17:47;;;;;;;3.40;3.00;;;;;;;;;;5032030;28;20224;-31
2022/07/10 04:20:14;;;;;;;3.60;2.73;;;;;;;;;;5019577;28;20211;-29
2022/07/10 04:22:41;;;;;;;5.30;3.07;;;;;;;;;;5021655;28;20209;-30
2022/07/10 04:25:09;;;;;;;3.30;2.87;;;;;;;;;;5021954;28;20221;-33
2022/07/10 04:27:36;;;;;;;3.10;2.90;;;;;;;;;;5024880;28;20229;-30
2022/07/10 04:30:04;;;;;;;7.67;3.20;;;;;;;;;;5013204;28;20213;-32
2022/07/10 04:32:33;;;;;;;3.13;2.87;;;;;;;;;;5028809;28;20212;-32
2022/07/10 04:35:00;;;;;;;3.90;3.50;;;;;;;;;;5021374;28;20208;-32
2022/07/10 04:37:28;;;;;;;3.40;3.10;;;;;;;;;;5028175;28;20228;-30
2022/07/10 04:39:55;;;;;;;3.20;3.00;;;;;;;;;;5023355;28;20204;-29
2022/07/10 04:42:22;;;;;;;5.07;3.03;;;;;;;;;;5027561;28;20215;-35
2022/07/10 04:44:49;;;;;;;2.97;2.50;;;;;;;;;;5023684;28;20228;-29
2022/07/10 04:47:16;;;;;;;3.10;2.73;;;;;;;;;;5020376;28;20234;-30
2022/07/10 04:49:45;;;;;;;4.33;3.13;;;;;;;;;;5015681;28;20310;-31
2022/07/10 04:52:12;;;;;;;3.30;2.93;;;;;;;;;;5026825;28;20205;-32
2022/07/10 04:54:39;;;;;;;2.83;2.63;;;;;;;;;;5025434;28;20196;-31
2022/07/10 04:57:06;;;;;;;3.43;2.80;;;;;;;;;;5028187;28;20235;-30
2022/07/10 04:59:33;;;;;;;6.00;2.87;;;;;;;;;;5019944;28;20213;-32
2022/07/10 05:02:00;;;;;;;6.10;3.30;;;;;;;;;;5027503;28;20210;-33
2022/07/10 05:04:27;;;;;;;2.97;2.70;;;;;;;;;;5021604;28;20228;-33
2022/07/10 05:06:56;;;;;;;4.27;2.70;;;;;;;;;;5015511;28;20227;-30
2022/07/10 05:09:23;;;;;;;4.00;3.03;;;;;;;;;;5016181;28;20203;-31
2022/07/10 05:11:50;;;;;;;4.53;3.13;;;;;;;;;;5030988;28;20214;-32
2022/07/10 05:14:18;;;;;;;3.27;2.67;;;;;;;;;;5019767;28;20216;-33
2022/07/10 05:16:45;;;;;;;3.97;2.37;;;;;;;;;;5018852;28;20291;-29
2022/07/10 05:19:12;;;;;;;2.40;2.20;;;;;;;;;;5023029;28;20210;-30
2022/07/10 05:21:39;;;;;;;4.80;2.20;;;;;;;;;;5022901;28;20223;-34
2022/07/10 05:24:08;;;;;;;3.20;2.90;;;;;;;;;;5022810;28;20217;-31
2022/07/10 05:26:36;;;;;;;5.50;2.70;;;;;;;;;;5024802;28;20279;-33
2022/07/10 05:29:03;;;;;;;2.77;2.57;;;;;;;;;;5016561;28;20204;-30
2022/07/10 05:31:30;;;;;;;4.23;2.50;;;;;;;;;;5020437;28;20208;-30
2022/07/10 05:33:57;;;;;;;2.63;2.10;;;;;;;;;;5017950;28;20207;-30
2022/07/10 05:36:24;;;;;;;2.53;2.33;;;;;;;;;;5022854;28;20240;-32
2022/07/10 05:38:51;;;;;;;2.30;2.17;;;;;;;;;;5028484;28;20200;-33
2022/07/10 05:41:20;;;;;;;3.87;2.40;;;;;;;;;;5019602;28;20209;-33
2022/07/10 05:43:47;;;;;;;3.97;2.50;;;;;;;;;;5021650;28;20228;-29
2022/07/10 05:46:14;;;;;;;3.07;1.90;;;;;;;;;;5030582;28;20257;-33
2022/07/10 05:48:41;;;;;;;2.00;1.90;;;;;;;;;;5019209;28;20285;-32
2022/07/10 05:51:08;;;;;;;2.67;1.70;;;;;;;;;;5020955;28;20203;-30
2022/07/10 05:53:36;;;;;;;3.23;1.97;;;;;;;;;;5024541;28;20203;-31
2022/07/10 05:56:03;;;;;;;3.43;2.30;;;;;;;;;;5029695;28;20293;-32
2022/07/10 05:58:31;;;;;;;2.10;1.90;;;;;;;;;;5012755;28;20210;-30
2022/07/10 06:00:58;;;;;;;2.50;1.80;;;;;;;;;;5019580;28;20202;-29
2022/07/10 06:03:26;;;;;;;2.33;2.07;;;;;;;;;;5024128;28;20220;-29
2022/07/10 06:05:53;;;;;;;2.90;2.20;;;;;;;;;;5022099;28;20297;-28
2022/07/10 06:08:20;;;;;;;2.17;1.80;;;;;;;;;;5021333;28;20203;-31
2022/07/10 06:10:47;;;;;;;3.10;2.20;;;;;;;;;;5016945;28;20263;-33
2022/07/10 06:13:14;;;;;;;2.97;2.00;;;;;;;;;;5026909;28;20211;-32
2022/07/10 06:15:42;;;;;;;3.17;1.80;;;;;;;;;;5030270;28;20202;-33
2022/07/10 06:18:10;;;;;;;2.80;2.07;;;;;;;;;;5022862;28;20229;-29
2022/07/10 06:20:37;;;;;;;2.80;1.53;;;;;;;;;;5025228;28;20210;-31
2022/07/10 06:23:04;;;;;;;2.80;1.73;;;;;;;;;;5027515;28;20210;-29
2022/07/10 06:25:31;;;;;;;1.67;1.57;;;;;;;;;;5016883;28;20229;-31
2022/07/10 06:27:58;;;;;;;2.40;1.60;;;;;;;;;;5021812;28;20256;-30
2022/07/10 06:30:25;;;;;;;2.10;1.90;;;;;;;;;;5010242;28;20211;-33
2022/07/10 06:32:54;;;;;;;1.97;1.80;;;;;;;;;;5021289;28;20299;-30
2022/07/10 06:35:21;;;;;;;1.80;1.70;;;;;;;;;;5016533;28;20202;-31
2022/07/10 06:37:48;;;;;;;2.27;1.80;;;;;;;;;;5025930;28;20231;-31
2022/07/10 06:40:15;;;;;;;2.87;2.33;;;;;;;;;;5017248;28;20202;-33
2022/07/10 06:42:42;;;;;;;3.83;2.07;;;;;;;;;;5024617;28;20213;-31
2022/07/10 06:45:10;;;;;;;3.43;2.07;;;;;;;;;;5023219;28;20229;-30
2022/07/10 06:50:24;;;;;;;2.33;1.80;;;;;;;;;;5017725;28;20353;-33
2022/07/10 06:52:51;;;;;;;4.67;1.87;;;;;;;;;;5020816;28;20206;-30
2022/07/10 06:55:19;;;;;;;1.70;1.30;;;;;;;;;;5018434;28;20221;-31
2022/07/10 06:57:46;;;;;;;2.23;1.50;;;;;;;;;;5013615;28;20226;-31
2022/07/10 07:00:14;;;;;;;2.00;1.70;;;;;;;;;;5012647;28;20205;-29
2022/07/10 07:02:41;;;;;;;2.70;1.23;;;;;;;;;;5016098;28;20214;-30
2022/07/10 07:05:08;;;;;;;1.83;1.30;;;;;;;;;;5019228;28;20228;-32
2022/07/10 07:07:37;;;;;;;2.40;1.60;;;;;;;;;;5027128;28;20220;-29
2022/07/10 07:10:05;;;;;;;2.40;1.50;;;;;;;;;;5021651;28;20263;-32
2022/07/10 07:12:32;;;;;;;2.57;1.53;;;;;;;;;;5024158;28;20208;-28
2022/07/10 07:14:59;;;;;;;2.47;1.30;;;;;;;;;;5019644;28;20201;-30
2022/07/10 07:17:33;;;;;;;6.27;1.70;;;;;;;;;;5016638;28;20231;-31
2022/07/10 07:25:38;;;;;;;2.30;1.70;;;;;;;;;;5009281;28;20244;-29
2022/07/10 07:28:05;;;;;;;1.83;1.33;;;;;;;;;;5033735;28;20233;-32
2022/07/10 07:30:32;;;;;;;2.23;1.60;;;;;;;;;;5022805;28;20215;-30
2022/07/10 07:32:59;;;;;;;2.13;1.50;;;;;;;;;;5017291;28;20288;-33
2022/07/10 07:35:26;;;;;;;5.53;1.93;;;;;;;;;;5016915;28;20224;-30
2022/07/10 07:37:55;;;;;;;2.93;1.53;;;;;;;;;;5021486;28;20234;-33
2022/07/10 07:40:23;;;;;;;2.97;1.67;;;;;;;;;;5021112;28;20218;-32
2022/07/10 07:42:50;;;;;;;2.43;1.33;;;;;;;;;;5024891;28;20209;-31
2022/07/10 07:45:18;;;;;;;3.50;1.47;;;;;;;;;;5019910;28;20236;-30
2022/07/10 07:47:45;;;;;;;2.43;1.40;;;;;;;;;;5023085;28;20238;-31
2022/07/10 07:50:13;;;;;;;3.50;1.27;;;;;;;;;;5021676;28;20217;-33
2022/07/10 07:52:40;;;;;;;2.77;1.40;;;;;;;;;;5023165;28;20203;-32
2022/07/10 07:55:10;;;;;;;3.20;1.30;;;;;;;;;;5022252;28;20202;-33
2022/07/10 07:57:37;;;;;;;2.47;1.10;;;;;;;;;;5023777;28;20218;-34
2022/07/10 08:00:05;;;;;;;1.63;1.10;;;;;;;;;;5021713;28;20206;-33
2022/07/10 08:02:32;;;;;;;1.83;1.10;;;;;;;;;;5023206;28;20224;-31
2022/07/10 08:05:02;;;;;;;1.57;1.10;;;;;;;;;;5020241;28;20229;-33
2022/07/10 08:07:35;;;;;;;3.40;1.10;;;;;;;;;;5026149;28;20341;-29
2022/07/10 08:10:02;;;;;;;1.10;1.10;;;;;;;;;;5021630;28;20206;-31
2022/07/10 08:12:31;;;;;;;3.23;1.50;;;;;;;;;;5022140;28;20207;-30
2022/07/10 08:14:58;;;;;;;1.37;1.00;;;;;;;;;;5021707;28;20202;-32
2022/07/10 08:17:25;;;;;;;3.30;0.93;;;;;;;;;;5015586;28;20226;-29
2022/07/10 08:19:52;;;;;;;2.73;1.30;;;;;;;;;;5017675;28;20221;-29
2022/07/10 08:22:19;;;;;;;1.63;1.20;;;;;;;;;;5028336;28;20202;-31
2022/07/10 08:24:46;;;;;;;3.83;1.20;;;;;;;;;;5032601;28;20257;-30
2022/07/10 08:27:13;;;;;;;1.27;0.80;;;;;;;;;;5033810;28;20264;-29
2022/07/10 08:29:42;;;;;;;2.13;1.30;;;;;;;;;;5029361;28;20207;-30
2022/07/10 08:32:10;;;;;;;1.10;1.00;;;;;;;;;;5025762;28;20214;-34
2022/07/10 08:34:37;;;;;;;2.70;1.80;;;;;;;;;;5026946;28;20266;-32
2022/07/10 08:37:05;;;;;;;2.93;1.40;;;;;;;;;;5014033;28;20314;-30
2022/07/10 08:39:32;;;;;;;4.70;1.33;;;;;;;;;;5014806;28;20204;-29
2022/07/10 08:42:00;;;;;;;2.53;1.20;;;;;;;;;;5012272;28;20219;-30
2022/07/10 08:44:28;;;;;;;3.10;1.20;;;;;;;;;;5022069;28;20854;-32
2022/07/10 08:46:57;;;;;;;1.90;1.00;;;;;;;;;;5019929;28;20233;-30
2022/07/10 08:49:28;;;;;;;2.42;1.40;;;;;;;;;;5014045;28;20199;-29
2022/07/10 08:51:58;;;;;;;1.35;1.00;;;;;;;;;;5016050;28;20207;-31
2022/07/10 08:54:26;;;;;;;1.23;1.13;;;;;;;;;;5031891;28;20217;-33
2022/07/10 08:56:54;;;;;;;1.15;1.10;;;;;;;;;;5025674;28;20286;-31
2022/07/10 08:59:22;;;;;;;1.20;1.10;;;;;;;;;;5023670;28;20237;-32
2022/07/10 09:01:50;;;;;;;2.72;1.25;;;;;;;;;;5023248;28;20231;-33
2022/07/10 09:04:19;;;;;;;1.00;1.00;;;;;;;;;;5025201;28;20417;-29
2022/07/10 09:06:46;;;;;;;1.10;0.90;;;;;;;;;;5021349;28;20235;-33
2022/07/10 09:09:13;;;;;;;1.02;0.80;;;;;;;;;;5031516;28;20260;-29
2022/07/10 09:11:42;;;;;;;1.20;1.10;;;;;;;;;;5025630;28;20203;-34
2022/07/10 09:14:11;;;;;;;2.15;1.08;;;;;;;;;;5024393;28;20221;-30
2022/07/10 09:16:39;;;;;;;2.53;1.40;;;;;;;;;;5027024;28;20253;-33
2022/07/10 09:19:16;;;;;;;2.05;1.08;;;;;;;;;;5026040;28;20278;-33
2022/07/10 09:21:47;;;;;;;4.57;1.27;;;;;;;;;;5018198;28;20277;-31
2022/07/10 09:24:16;;;;;;;2.00;1.10;;;;;;;;;;5019075;28;20218;-30
2022/07/10 09:26:44;;;;;;;1.93;1.13;;;;;;;;;;5013206;28;20300;-33
2022/07/10 09:29:12;;;;;;;3.03;1.00;;;;;;;;;;5018982;28;20238;-32
2022/07/10 09:31:52;;;;;;;1.57;1.30;;;;;;;;;;5020760;28;20211;-32
2022/07/10 09:34:19;;;;;;;1.02;0.95;;;;;;;;;;5009621;28;20257;-32
2022/07/10 09:36:48;;;;;;;4.05;1.38;;;;;;;;;;5031142;28;20237;-33
2022/07/10 09:39:15;;;;;;;5.35;1.30;;;;;;;;;;5010990;28;20214;-31
2022/07/10 09:41:42;;;;;;;3.78;1.40;;;;;;;;;;5011080;28;20207;-29
2022/07/10 09:44:11;;;;;;;4.00;1.33;;;;;;;;;;5009532;28;20218;-33
2022/07/10 09:46:39;;;;;;;2.15;1.15;;;;;;;;;;5278163;22;20238;-30
2022/07/10 09:49:07;;;;;;;2.93;1.20;;;;;;;;;;5038742;28;20202;-32
2022/07/10 09:51:35;;;;;;;5.32;1.20;;;;;;;;;;5045362;28;20217;-34
2022/07/10 09:54:04;;;;;;;1.20;1.00;;;;;;;;;;5040186;28;20198;-32
2022/07/10 09:56:35;;;;;;;1.83;1.42;;;;;;;;;;5045627;28;20252;-29
2022/07/10 09:59:02;;;;;;;2.33;0.97;;;;;;;;;;5053207;28;20643;-34
2022/07/10 10:01:30;;;;;;;2.90;1.20;;;;;;;;;;5053701;28;20560;-33
2022/07/10 10:04:01;;;;;;;1.43;1.20;;;;;;;;;;5042899;28;20206;-30
2022/07/10 10:06:29;;;;;;;1.90;1.20;;;;;;;;;;5054045;28;20298;-31
2022/07/10 10:08:58;;;;;;;6.43;1.30;;;;;;;;;;5061546;28;20227;-32
2022/07/10 10:11:28;;;;;;;1.33;1.00;;;;;;;;;;5051251;28;20201;-35
2022/07/10 10:13:55;;;;;;;2.67;1.17;;;;;;;;;;5047765;28;20207;-30
2022/07/10 10:16:23;;;;;;;1.07;0.97;;;;;;;;;;5056685;28;20225;-32
2022/07/10 10:21:37;;;;;;;3.03;0.97;;;;;;;;;;5051735;28;20209;-31
2022/07/10 10:24:04;;;;;;;5.70;1.80;;;;;;;;;;5059377;28;20285;-34
2022/07/10 10:26:33;;;;;;;0.87;0.80;;;;;;;;;;5053727;28;20233;-33
2022/07/10 10:29:01;;;;;;;1.60;0.80;;;;;;;;;;5045726;28;20218;-33
2022/07/10 10:31:29;;;;;;;2.80;1.27;;;;;;;;;;5060328;28;20269;-29
2022/07/10 10:33:56;;;;;;;1.63;1.00;;;;;;;;;;5053874;28;20198;-30
2022/07/10 10:36:45;;;;;;;2.80;0.90;;;;;;;;;;5047334;28;20236;-31
2022/07/10 10:39:13;;;;;;;1.60;0.93;;;;;;;;;;5063190;28;20216;-31
2022/07/10 10:41:42;;;;;;;1.67;1.30;;;;;;;;;;5046256;28;20224;-36
2022/07/10 10:44:22;;;;;;;4.27;1.50;;;;;;;;;;5051937;28;20213;-31
2022/07/10 10:47:00;;;;;;;3.73;1.80;;;;;;;;;;5060278;28;20229;-29
2022/07/10 10:49:28;;;;;;;2.20;1.20;;;;;;;;;;5044669;28;20757;-34
2022/07/10 10:51:59;;;;;;;1.60;1.00;;;;;;;;;;5061896;28;20291;-32
2022/07/10 10:54:26;;;;;;;1.53;1.10;;;;;;;;;;5065989;28;20254;-32
2022/07/10 10:57:08;;;;;;;2.53;1.07;;;;;;;;;;5073358;28;20224;-30
2022/07/10 10:59:47;;;;;;;1.67;1.00;;;;;;;;;;5042124;28;20299;-32
2022/07/10 11:02:26;;;;;;;1.17;0.80;;;;;;;;;;5064545;28;20189;-32
2022/07/10 11:04:53;;;;;;;2.00;1.00;;;;;;;;;;5050139;28;20220;-34
2022/07/10 11:07:38;;;;;;;1.20;0.80;;;;;;;;;;5069131;28;20227;-29
2022/07/10 11:10:23;;;;;;;0.80;0.80;;;;;;;;;;5061427;28;20300;-29
2022/07/10 11:13:00;;;;;;;1.87;1.00;;;;;;;;;;5062054;28;20205;-31
2022/07/10 11:15:30;;;;;;;1.53;1.00;;;;;;;;;;5048705;28;20410;-30
2022/07/10 11:17:57;;;;;;;1.33;1.20;;;;;;;;;;5061248;28;20283;-30
2022/07/10 11:20:24;;;;;;;1.53;0.90;;;;;;;;;;5054536;28;20204;-32
2022/07/10 11:23:01;;;;;;;2.80;0.67;;;;;;;;;;5057633;28;20296;-34
2022/07/10 11:25:42;;;;;;;1.03;0.90;;;;;;;;;;5063843;28;20232;-34
2022/07/10 11:28:10;;;;;;;2.67;0.70;;;;;;;;;;5047757;28;20233;-33
2022/07/10 11:30:49;;;;;;;4.43;1.00;;;;;;;;;;5057642;28;20251;-29
2022/07/10 11:33:16;;;;;;;1.93;1.07;;;;;;;;;;5049374;28;20659;-32
2022/07/10 11:35:46;;;;;;;2.93;1.03;;;;;;;;;;5038839;28;20209;-34
2022/07/10 11:38:13;;;;;;;1.60;0.77;;;;;;;;;;5057704;28;20225;-34
2022/07/10 11:40:40;;;;;;;3.00;1.07;;;;;;;;;;5050961;28;20220;-34
2022/07/10 11:43:13;;;;;;;2.13;0.90;;;;;;;;;;5046292;28;20209;-30
2022/07/10 11:45:41;;;;;;;1.23;0.97;;;;;;;;;;5061074;28;20225;-34
2022/07/10 11:48:17;;;;;;;2.63;1.00;;;;;;;;;;5070880;28;20301;-34
2022/07/10 11:50:45;;;;;;;3.17;1.00;;;;;;;;;;5053148;28;20201;-35
2022/07/10 11:53:12;;;;;;;1.90;1.00;;;;;;;;;;5057542;28;20247;-35
2022/07/10 11:55:40;;;;;;;1.13;1.00;;;;;;;;;;5075059;28;20233;-32
2022/07/10 11:58:14;;;;;;;1.93;0.80;;;;;;;;;;5067410;28;20342;-34
2022/07/10 12:00:41;;;;;;;1.47;0.83;;;;;;;;;;5059695;28;20654;-33
2022/07/10 12:03:20;;;;;;;1.33;0.90;;;;;;;;;;5055272;28;20208;-36
2022/07/10 12:05:48;;;;;;;1.83;1.10;;;;;;;;;;5047105;28;20280;-34
2022/07/10 12:08:15;;;;;;;3.00;0.90;;;;;;;;;;5064654;28;20296;-31
2022/07/10 12:10:43;;;;;;;1.97;1.27;;;;;;;;;;5073365;28;20565;-34
2022/07/10 12:13:11;;;;;;;4.57;1.00;;;;;;;;;;5051464;28;20213;-34
2022/07/10 12:15:39;;;;;;;3.00;1.33;;;;;;;;;;5048487;28;20214;-33
2022/07/10 12:18:07;;;;;;;2.17;0.80;;;;;;;;;;5057091;28;20248;-32
2022/07/10 12:20:36;;;;;;;1.37;0.80;;;;;;;;;;5047580;28;20591;-35
2022/07/10 12:23:04;;;;;;;0.97;0.70;;;;;;;;;;5062668;28;20212;-35
2022/07/10 12:25:31;;;;;;;0.80;0.80;;;;;;;;;;5074630;28;20201;-31
2022/07/10 12:27:59;;;;;;;1.33;0.80;;;;;;;;;;5056567;28;20650;-35
2022/07/10 12:30:37;;;;;;;1.25;0.80;;;;;;;;;;5060927;28;20206;-34
2022/07/10 12:33:15;;;;;;;1.27;1.10;;;;;;;;;;5062106;28;20682;-36
2022/07/10 12:35:55;;;;;;;1.63;1.00;;;;;;;;;;5052270;28;20292;-36
2022/07/10 12:38:23;;;;;;;1.87;1.00;;;;;;;;;;5058781;28;20205;-29
2022/07/10 12:40:50;;;;;;;3.60;1.00;;;;;;;;;;5074552;28;20560;-33
2022/07/10 12:43:27;;;;;;;3.30;0.80;;;;;;;;;;5057405;28;20213;-32
2022/07/10 12:46:10;;;;;;;1.10;0.73;;;;;;;;;;5047594;28;20222;-33
2022/07/10 12:48:37;;;;;;;1.73;1.20;;;;;;;;;;5053836;28;20220;-32
2022/07/10 12:51:19;;;;;;;1.90;1.03;;;;;;;;;;5046573;28;20242;-33
2022/07/10 12:53:48;;;;;;;3.60;0.95;;;;;;;;;;5054580;28;20217;-33
2022/07/10 12:56:27;;;;;;;2.78;0.93;;;;;;;;;;5052520;28;20726;-30
2022/07/10 12:58:54;;;;;;;1.85;1.00;;;;;;;;;;5040375;28;20206;-32
2022/07/10 13:01:21;;;;;;;1.63;0.98;;;;;;;;;;5050352;28;20201;-35
2022/07/10 13:03:49;;;;;;;3.05;1.10;;;;;;;;;;5063112;28;20361;-30
2022/07/10 13:06:27;;;;;;;2.93;1.00;;;;;;;;;;5052840;28;20321;-34
2022/07/10 13:08:55;;;;;;;2.13;0.77;;;;;;;;;;5061573;28;20205;-34
2022/07/10 13:11:23;;;;;;;1.63;0.90;;;;;;;;;;5052988;28;20214;-31
2022/07/10 13:13:50;;;;;;;2.90;0.97;;;;;;;;;;5055548;28;20235;-33
2022/07/10 13:16:17;;;;;;;0.80;0.80;;;;;;;;;;5048577;28;20308;-35
2022/07/10 13:18:44;;;;;;;1.50;0.70;;;;;;;;;;5052663;28;20203;-33
2022/07/10 13:21:12;;;;;;;1.00;1.00;;;;;;;;;;5052221;28;20586;-32
2022/07/10 13:23:39;;;;;;;2.53;0.80;;;;;;;;;;5049930;28;20219;-32
2022/07/10 13:26:08;;;;;;;2.20;0.95;;;;;;;;;;5054185;28;20228;-32
2022/07/10 13:28:35;;;;;;;2.03;0.85;;;;;;;;;;5044714;28;20212;-33
2022/07/10 13:31:03;;;;;;;1.58;0.77;;;;;;;;;;5061409;28;20654;-31
2022/07/10 13:33:30;;;;;;;2.90;0.70;;;;;;;;;;5068384;28;20204;-31
2022/07/10 13:36:01;;;;;;;2.25;1.00;;;;;;;;;;5046744;28;20228;-34
2022/07/10 13:38:28;;;;;;;2.23;0.80;;;;;;;;;;5052797;28;20204;-32
2022/07/10 13:40:55;;;;;;;2.92;1.00;;;;;;;;;;5051473;28;20221;-33
2022/07/10 13:43:28;;;;;;;1.80;0.77;;;;;;;;;;5045865;28;20217;-33
2022/07/10 13:45:55;;;;;;;1.55;0.90;;;;;;;;;;5061569;28;20205;-34
2022/07/10 13:48:22;;;;;;;1.63;0.70;;;;;;;;;;5057806;28;20225;-32
2022/07/10 13:50:50;;;;;;;0.95;0.73;;;;;;;;;;5050478;28;20211;-32
2022/07/10 13:53:17;;;;;;;1.92;0.73;;;;;;;;;;5063806;28;20204;-29
2022/07/10 13:55:45;;;;;;;0.90;0.85;;;;;;;;;;5057176;28;20262;-33
2022/07/10 13:58:12;;;;;;;2.87;0.80;;;;;;;;;;5042538;28;20225;-32
2022/07/10 14:00:40;;;;;;;2.13;0.90;;;;;;;;;;5053747;28;20212;-32
2022/07/10 14:03:09;;;;;;;1.47;0.70;;;;;;;;;;5072617;28;20395;-32
2022/07/10 14:05:36;;;;;;;1.55;0.70;;;;;;;;;;5046787;28;20200;-32
2022/07/10 14:08:03;;;;;;;1.10;0.70;;;;;;;;;;5052257;28;20740;-32
2022/07/10 14:10:30;;;;;;;0.50;0.50;;;;;;;;;;5072596;28;20682;-32
2022/07/10 14:12:57;;;;;;;2.37;0.97;;;;;;;;;;5064114;28;20197;-30
2022/07/10 14:15:25;;;;;;;1.65;0.60;;;;;;;;;;5043372;28;20213;-30
2022/07/10 14:17:54;;;;;;;2.33;0.70;;;;;;;;;;5068499;28;20221;-30
2022/07/10 14:20:21;;;;;;;0.93;0.70;;;;;;;;;;5046802;28;20236;-33
2022/07/10 14:22:49;;;;;;;1.35;0.40;;;;;;;;;;5055194;28;20201;-34
2022/07/10 14:25:16;;;;;;;3.17;0.80;;;;;;;;;;5052295;28;20201;-30
2022/07/10 14:27:43;;;;;;;0.75;0.70;;;;;;;;;;5052928;28;20234;-34
2022/07/10 14:30:11;;;;;;;0.60;0.60;;;;;;;;;;5047460;28;20209;-36
2022/07/10 14:32:38;;;;;;;0.63;0.60;;;;;;;;;;5061788;28;20212;-31
2022/07/10 14:35:08;;;;;;;3.08;0.60;;;;;;;;;;5047634;28;20210;-30
2022/07/10 14:37:35;;;;;;;0.50;0.50;;;;;;;;;;5053879;28;20230;-32
2022/07/10 14:40:02;;;;;;;1.75;0.60;;;;;;;;;;5052622;28;20209;-31
2022/07/10 14:42:29;;;;;;;0.67;0.60;;;;;;;;;;5052358;28;20316;-33
2022/07/10 14:44:57;;;;;;;1.75;0.80;;;;;;;;;;5040962;28;20211;-31
2022/07/10 14:47:25;;;;;;;0.73;0.50;;;;;;;;;;5056028;28;20221;-30
2022/07/10 14:49:52;;;;;;;1.58;0.70;;;;;;;;;;5054401;28;20202;-29
2022/07/10 14:52:21;;;;;;;1.13;0.82;;;;;;;;;;5064186;28;20200;-31
2022/07/10 14:54:50;;;;;;;1.00;0.57;;;;;;;;;;5071843;28;20205;-33
2022/07/10 14:57:17;;;;;;;1.25;0.40;;;;;;;;;;5066736;28;20221;-32
2022/07/10 14:59:44;;;;;;;0.77;0.60;;;;;;;;;;5037994;28;20637;-31
2022/07/10 15:02:12;;;;;;;2.17;1.08;;;;;;;;;;5070397;28;20204;-31
2022/07/10 15:04:39;;;;;;;0.90;0.70;;;;;;;;;;5049659;28;20297;-31